Time;durP1;ratioP1;P1;durP2;ratioP2;P2;SDS_P1;SDS_P2;PMS_P1;PMS_P2;Temp;Humidity;BMP_temperature;BMP_pressure;BME280_temperature;BME280_humidity;BME280_pressure;Samples;Min_cycle;Max_cycle;Signal;HPM_P1;HPM_P2
2022/01/15 00:00:21;;;;;;;6.90;4.15;;;6.60;99.90;;;;;;5058993;28;20044;-67
2022/01/15 00:02:46;;;;;;;7.88;4.15;;;6.60;99.90;;;;;;5058813;28;20371;-67
2022/01/15 00:05:12;;;;;;;11.23;4.47;;;6.50;99.90;;;;;;5063808;28;20047;-67
2022/01/15 00:07:38;;;;;;;15.80;7.05;;;6.60;99.90;;;;;;5057144;28;20095;-67
2022/01/15 00:10:06;;;;;;;9.13;5.35;;;6.60;99.90;;;;;;5059326;28;20056;-67
2022/01/15 00:12:39;;;;;;;10.70;5.50;;;6.60;99.90;;;;;;5063267;28;20489;-67
2022/01/15 00:15:06;;;;;;;12.68;6.03;;;6.60;99.90;;;;;;5057392;28;20394;-67
2022/01/15 00:17:48;;;;;;;10.23;5.63;;;6.60;99.90;;;;;;5078926;28;20037;-67
2022/01/15 00:20:16;;;;;;;10.40;5.80;;;6.60;99.90;;;;;;5060575;28;20468;-67
2022/01/15 00:22:43;;;;;;;10.95;5.78;;;6.50;99.90;;;;;;5058135;28;20025;-67
2022/01/15 00:25:09;;;;;;;7.82;5.30;;;6.50;99.90;;;;;;5061139;28;20174;-67
2022/01/15 00:27:35;;;;;;;29.65;7.80;;;6.50;99.90;;;;;;5066116;28;20063;-67
2022/01/15 00:30:03;;;;;;;14.07;6.07;;;6.50;99.90;;;;;;5067638;28;20041;-67
2022/01/15 00:32:29;;;;;;;25.08;8.07;;;6.50;99.90;;;;;;5063866;28;20621;-67
2022/01/15 00:34:55;;;;;;;32.45;8.38;;;6.50;99.90;;;;;;5061775;28;20045;-67
2022/01/15 00:37:20;;;;;;;27.75;8.45;;;6.50;99.90;;;;;;5058683;28;20116;-67
2022/01/15 00:39:46;;;;;;;14.63;6.47;;;6.50;99.90;;;;;;5054981;28;20041;-67
2022/01/15 00:42:13;;;;;;;9.95;5.45;;;6.50;99.90;;;;;;5042877;28;20045;-67
2022/01/15 00:44:41;;;;;;;8.90;4.55;;;6.50;99.90;;;;;;5061385;28;20478;-67
2022/01/15 00:47:07;;;;;;;7.45;4.43;;;6.50;99.90;;;;;;5059418;28;20064;-67
2022/01/15 00:49:32;;;;;;;7.93;3.85;;;6.50;99.90;;;;;;5058898;28;20048;-67
2022/01/15 00:52:00;;;;;;;7.43;3.85;;;6.50;99.90;;;;;;5061497;28;20041;-67
2022/01/15 00:54:25;;;;;;;6.90;4.70;;;6.50;99.90;;;;;;5043965;28;20040;-67
2022/01/15 00:56:51;;;;;;;7.32;4.43;;;6.50;99.90;;;;;;5061714;28;20028;-67
2022/01/15 00:59:18;;;;;;;7.47;3.90;;;6.50;99.90;;;;;;5061472;28;20032;-67
2022/01/15 01:01:44;;;;;;;8.25;3.60;;;6.50;99.90;;;;;;5058562;28;20640;-67
2022/01/15 01:04:10;;;;;;;6.03;3.70;;;6.50;99.90;;;;;;5058308;28;20116;-67
2022/01/15 01:06:36;;;;;;;8.45;4.70;;;6.50;99.90;;;;;;5061875;28;20140;-67
2022/01/15 01:09:02;;;;;;;6.53;3.17;;;6.50;99.90;;;;;;5060004;28;20036;-67
2022/01/15 01:11:41;;;;;;;6.15;3.55;;;6.50;99.90;;;;;;5057677;28;20037;-67
2022/01/15 01:24:48;;;;;;;5.80;3.58;;;6.50;99.90;;;;;;5057977;28;20050;-67
2022/01/15 01:27:40;;;;;;;5.57;3.08;;;6.50;99.90;;;;;;5055650;28;20037;-67
2022/01/15 01:30:22;;;;;;;6.03;3.38;;;6.50;99.90;;;;;;5058315;28;20522;-67
2022/01/15 01:32:53;;;;;;;5.28;3.85;;;6.50;99.90;;;;;;5059658;28;20037;-67
2022/01/15 01:35:38;;;;;;;7.00;4.47;;;6.50;99.90;;;;;;5055478;28;20111;-67
2022/01/15 01:38:13;;;;;;;9.45;6.20;;;6.50;99.90;;;;;;5060380;28;20486;-67
2022/01/15 01:40:43;;;;;;;8.75;4.93;;;6.40;99.90;;;;;;5057554;28;20072;-67
2022/01/15 01:45:51;;;;;;;7.78;4.35;;;6.40;99.90;;;;;;5062837;28;20402;-67
2022/01/15 01:48:17;;;;;;;5.88;4.45;;;6.40;99.90;;;;;;5054392;28;20391;-67
2022/01/15 01:50:43;;;;;;;6.40;4.13;;;6.40;99.90;;;;;;5061559;28;20043;-67
2022/01/15 01:53:09;;;;;;;8.63;5.22;;;6.40;99.90;;;;;;5061421;28;20036;-67
2022/01/15 01:55:36;;;;;;;7.35;4.38;;;6.40;99.90;;;;;;5063063;28;20084;-67
2022/01/15 01:58:02;;;;;;;8.98;4.30;;;6.40;99.90;;;;;;5060305;28;20033;-67
2022/01/15 02:00:30;;;;;;;7.72;4.15;;;6.40;99.90;;;;;;5058748;28;20505;-67
2022/01/15 02:02:57;;;;;;;7.72;4.82;;;6.40;99.90;;;;;;5061989;28;20064;-67
2022/01/15 02:05:24;;;;;;;7.57;4.07;;;6.40;99.90;;;;;;5058716;28;20052;-67
2022/01/15 02:07:50;;;;;;;7.47;4.82;;;6.40;99.90;;;;;;5061545;28;20048;-67
2022/01/15 02:10:19;;;;;;;8.82;4.95;;;6.40;99.90;;;;;;5065175;28;20047;-67
2022/01/15 02:12:48;;;;;;;6.15;4.05;;;6.30;99.90;;;;;;5065051;28;20040;-67
2022/01/15 02:15:16;;;;;;;7.68;4.20;;;6.40;99.90;;;;;;5072054;28;20124;-67
2022/01/15 02:17:43;;;;;;;6.63;4.65;;;6.40;99.90;;;;;;5063644;28;20040;-67
2022/01/15 02:25:41;;;;;;;7.72;4.55;;;6.30;99.90;;;;;;5066868;28;20498;-67
2022/01/15 02:28:07;;;;;;;8.43;5.03;;;6.30;99.90;;;;;;5058364;28;20512;-67
2022/01/15 02:30:33;;;;;;;9.00;4.95;;;6.30;99.90;;;;;;5060739;28;20045;-67
2022/01/15 02:32:59;;;;;;;7.38;3.80;;;6.30;99.90;;;;;;5058806;28;20044;-67
2022/01/15 02:35:24;;;;;;;5.85;3.75;;;6.30;99.90;;;;;;5063671;28;20032;-67
2022/01/15 02:37:50;;;;;;;6.63;4.07;;;6.30;99.90;;;;;;5058958;28;20031;-67
2022/01/15 02:40:16;;;;;;;7.82;4.20;;;6.30;99.90;;;;;;5060160;28;20569;-67
2022/01/15 02:42:42;;;;;;;6.68;3.95;;;6.30;99.90;;;;;;5059186;28;20063;-67
2022/01/15 02:45:08;;;;;;;6.90;3.60;;;6.20;99.90;;;;;;5063008;28;20047;-67
2022/01/15 02:50:21;;;;;;;9.18;4.45;;;6.30;99.90;;;;;;5058164;28;20564;-67
2022/01/15 02:52:48;;;;;;;6.57;4.03;;;6.20;99.90;;;;;;5054966;28;20045;-67
2022/01/15 02:55:14;;;;;;;7.85;4.78;;;6.20;99.90;;;;;;5069334;28;20051;-67
2022/01/15 02:57:39;;;;;;;6.40;3.50;;;6.20;99.90;;;;;;5059739;28;20044;-67
2022/01/15 03:00:06;;;;;;;6.43;3.42;;;6.20;99.90;;;;;;5063042;28;20044;-67
2022/01/15 03:02:33;;;;;;;7.05;3.92;;;6.20;99.90;;;;;;5059772;28;20479;-67
2022/01/15 03:04:59;;;;;;;5.88;3.80;;;6.20;99.90;;;;;;5060048;28;20029;-67
2022/01/15 03:07:25;;;;;;;5.45;3.08;;;6.20;99.90;;;;;;5058866;28;20178;-67
2022/01/15 03:09:52;;;;;;;7.68;4.30;;;6.20;99.90;;;;;;5070285;28;20617;-67
2022/01/15 03:12:18;;;;;;;6.43;4.20;;;6.20;99.90;;;;;;5054536;28;20040;-67
2022/01/15 03:14:47;;;;;;;6.60;3.78;;;6.20;99.90;;;;;;5062467;28;20078;-67
2022/01/15 03:17:12;;;;;;;5.30;3.42;;;6.20;99.90;;;;;;5058720;28;20086;-67
2022/01/15 03:19:38;;;;;;;5.82;3.55;;;6.20;99.90;;;;;;5056135;28;20522;-67
2022/01/15 03:22:04;;;;;;;5.75;3.38;;;6.20;99.90;;;;;;5066627;28;20059;-67
2022/01/15 03:24:30;;;;;;;5.88;3.58;;;6.20;99.90;;;;;;5062538;28;20123;-67
2022/01/15 03:26:56;;;;;;;7.25;3.92;;;6.20;99.90;;;;;;5055496;28;20558;-67
2022/01/15 03:29:22;;;;;;;5.88;3.40;;;6.20;99.90;;;;;;5065139;28;20083;-67
2022/01/15 03:31:48;;;;;;;6.78;4.07;;;6.20;99.90;;;;;;5056993;28;20071;-67
2022/01/15 03:34:15;;;;;;;7.32;3.78;;;6.20;99.90;;;;;;5063491;28;20085;-67
2022/01/15 03:36:41;;;;;;;4.32;2.60;;;6.20;99.90;;;;;;5065652;28;20044;-67
2022/01/15 03:39:09;;;;;;;4.72;2.70;;;6.20;99.90;;;;;;5063678;28;20580;-67
2022/01/15 03:41:35;;;;;;;3.42;2.03;;;6.10;99.90;;;;;;5058968;28;20489;-67
2022/01/15 03:44:02;;;;;;;5.78;3.03;;;6.10;99.90;;;;;;5062789;28;20074;-67
2022/01/15 03:46:27;;;;;;;5.45;3.10;;;6.10;99.90;;;;;;5062040;28;20516;-67
2022/01/15 03:48:53;;;;;;;5.30;3.00;;;6.20;99.90;;;;;;5068431;28;20116;-67
2022/01/15 03:51:19;;;;;;;4.95;2.78;;;6.10;99.90;;;;;;5061798;28;20095;-67
2022/01/15 03:53:46;;;;;;;4.47;2.80;;;6.10;99.90;;;;;;5060774;28;20045;-67
2022/01/15 03:56:11;;;;;;;4.03;2.75;;;6.10;99.90;;;;;;5061678;28;20040;-67
2022/01/15 03:58:37;;;;;;;6.78;2.63;;;6.10;99.90;;;;;;5060886;28;20029;-67
2022/01/15 04:01:03;;;;;;;4.65;2.35;;;6.10;99.90;;;;;;5061720;28;20048;-67
2022/01/15 04:03:29;;;;;;;5.68;3.03;;;6.20;99.90;;;;;;5069062;28;20045;-67
2022/01/15 04:05:54;;;;;;;3.72;1.90;;;6.10;99.90;;;;;;5062281;28;20037;-67
2022/01/15 04:08:20;;;;;;;4.10;2.00;;;6.20;99.90;;;;;;5064956;28;20038;-67
2022/01/15 04:10:46;;;;;;;4.18;2.08;;;6.10;99.90;;;;;;5064973;28;20482;-67
2022/01/15 04:13:15;;;;;;;3.67;2.33;;;6.10;99.90;;;;;;5063323;28;20509;-67
2022/01/15 04:15:50;;;;;;;3.08;2.03;;;6.10;99.90;;;;;;5065719;28;20598;-67
2022/01/15 04:18:21;;;;;;;5.25;1.88;;;6.10;99.90;;;;;;5064526;28;20176;-67
2022/01/15 04:20:51;;;;;;;4.63;1.90;;;6.10;99.90;;;;;;5055515;28;20142;-67
2022/01/15 04:23:17;;;;;;;3.10;1.80;;;6.10;99.90;;;;;;5060940;28;20032;-67
2022/01/15 04:25:43;;;;;;;3.58;1.08;;;6.10;99.90;;;;;;5065679;28;20032;-67
2022/01/15 04:28:11;;;;;;;2.42;1.23;;;6.10;99.90;;;;;;5063990;28;20040;-67
2022/01/15 04:30:41;;;;;;;3.28;1.70;;;6.10;99.90;;;;;;5074881;28;20044;-67
2022/01/15 04:33:06;;;;;;;3.05;1.60;;;6.10;99.90;;;;;;5062596;28;20068;-67
2022/01/15 04:35:32;;;;;;;4.18;2.47;;;6.10;99.90;;;;;;5059840;28;20210;-67
2022/01/15 04:38:06;;;;;;;4.80;2.53;;;6.10;99.90;;;;;;5058930;28;20120;-67
2022/01/15 04:40:32;;;;;;;4.10;2.90;;;6.00;99.90;;;;;;5070646;28;20039;-67
2022/01/15 04:42:58;;;;;;;5.55;2.90;;;6.00;99.90;;;;;;5047038;28;20491;-67
2022/01/15 04:45:23;;;;;;;6.47;3.63;;;6.00;99.90;;;;;;5067311;28;20033;-67
2022/01/15 04:47:49;;;;;;;5.78;3.70;;;6.00;99.90;;;;;;5059691;28;20075;-67
2022/01/15 04:50:20;;;;;;;5.13;2.67;;;6.00;99.90;;;;;;5064132;28;20438;-67
2022/01/15 04:52:46;;;;;;;3.25;1.70;;;6.00;99.90;;;;;;5067989;28;20319;-67
2022/01/15 04:55:13;;;;;;;3.53;1.90;;;6.00;99.90;;;;;;5057181;28;20116;-67
2022/01/15 04:57:45;;;;;;;3.22;1.95;;;6.00;99.90;;;;;;5057155;28;20083;-67
2022/01/15 05:00:15;;;;;;;8.73;3.85;;;6.00;99.90;;;;;;5061045;28;20119;-67
2022/01/15 05:02:41;;;;;;;5.32;3.70;;;5.90;99.90;;;;;;5066124;28;20044;-67
2022/01/15 05:05:08;;;;;;;6.28;3.63;;;5.90;99.90;;;;;;5059224;28;20509;-67
2022/01/15 05:07:34;;;;;;;5.70;4.03;;;5.90;99.90;;;;;;5062409;28;20123;-67
2022/01/15 05:10:00;;;;;;;6.90;4.30;;;5.90;99.90;;;;;;5061971;28;20570;-67
2022/01/15 05:12:32;;;;;;;5.97;3.92;;;5.90;99.90;;;;;;5062953;28;20025;-67
2022/01/15 05:14:58;;;;;;;6.90;4.18;;;5.90;99.90;;;;;;5066014;28;20036;-67
2022/01/15 05:17:24;;;;;;;7.05;4.00;;;5.90;99.90;;;;;;5063068;28;20470;-67
2022/01/15 05:19:50;;;;;;;5.97;3.35;;;5.90;99.90;;;;;;5060040;28;20060;-67
2022/01/15 05:22:17;;;;;;;6.38;3.78;;;5.90;99.90;;;;;;5065924;28;20406;-67
2022/01/15 05:24:42;;;;;;;5.43;3.47;;;5.90;99.90;;;;;;5061685;28;20032;-67
2022/01/15 05:27:08;;;;;;;5.60;3.30;;;5.90;99.90;;;;;;5055462;28;20152;-67
2022/01/15 05:29:34;;;;;;;6.25;3.53;;;5.90;99.90;;;;;;5067509;28;20123;-67
2022/01/15 05:32:00;;;;;;;5.25;2.90;;;5.90;99.90;;;;;;5061106;28;20395;-67
2022/01/15 05:34:25;;;;;;;4.35;2.75;;;5.90;99.90;;;;;;5061034;28;20116;-67
2022/01/15 05:36:51;;;;;;;5.50;3.13;;;5.90;99.90;;;;;;5062392;28;20059;-67
2022/01/15 05:39:17;;;;;;;2.75;1.73;;;5.90;99.90;;;;;;5057601;28;20036;-67
2022/01/15 05:41:43;;;;;;;3.97;1.98;;;5.80;99.90;;;;;;5062404;28;20032;-68
2022/01/15 05:44:09;;;;;;;4.15;2.25;;;5.80;99.90;;;;;;5061928;28;20041;-67
2022/01/15 05:46:34;;;;;;;3.08;1.88;;;5.80;99.90;;;;;;5057144;28;20041;-67
2022/01/15 05:49:03;;;;;;;2.25;1.60;;;5.80;99.90;;;;;;5064460;28;20053;-67
2022/01/15 05:51:31;;;;;;;3.20;2.15;;;5.80;99.90;;;;;;5056206;28;20052;-67
2022/01/15 05:53:59;;;;;;;4.63;2.03;;;5.80;99.90;;;;;;5059704;28;20032;-67
2022/01/15 05:56:25;;;;;;;4.25;2.55;;;5.80;99.90;;;;;;5061141;28;20608;-67
2022/01/15 05:58:51;;;;;;;4.47;2.30;;;5.80;99.90;;;;;;5063697;28;20849;-67
2022/01/15 06:01:17;;;;;;;3.88;2.08;;;5.80;99.90;;;;;;5057344;28;20171;-67
2022/01/15 06:03:43;;;;;;;3.90;2.45;;;5.80;99.90;;;;;;5058004;28;20561;-67
2022/01/15 06:06:09;;;;;;;3.42;2.15;;;5.80;99.90;;;;;;5057166;28;20086;-67
2022/01/15 06:08:35;;;;;;;5.10;1.95;;;5.80;99.90;;;;;;5061226;28;20041;-67
2022/01/15 06:11:00;;;;;;;5.25;2.53;;;5.80;99.90;;;;;;5042752;28;20053;-67
2022/01/15 06:13:26;;;;;;;4.65;2.65;;;5.80;99.90;;;;;;5061369;28;20041;-67
2022/01/15 06:15:52;;;;;;;6.07;2.70;;;5.80;99.90;;;;;;5068226;28;20193;-67
2022/01/15 06:18:18;;;;;;;4.60;2.88;;;5.80;99.90;;;;;;5058855;28;20037;-67
2022/01/15 06:20:44;;;;;;;3.80;2.33;;;5.80;99.90;;;;;;5062136;28;20511;-67
2022/01/15 06:23:09;;;;;;;4.85;2.97;;;5.80;99.90;;;;;;5061902;28;20044;-67
2022/01/15 06:25:35;;;;;;;5.00;2.33;;;5.80;99.90;;;;;;5059567;28;20134;-67
2022/01/15 06:28:01;;;;;;;2.92;1.88;;;5.80;99.90;;;;;;5056029;28;20040;-67
2022/01/15 06:30:27;;;;;;;4.65;2.03;;;5.70;99.90;;;;;;5058095;28;20076;-67
2022/01/15 06:32:52;;;;;;;3.42;1.95;;;5.70;99.90;;;;;;5058938;28;20040;-67
2022/01/15 06:35:18;;;;;;;4.82;2.20;;;5.70;99.90;;;;;;5056957;28;20051;-67
2022/01/15 06:37:47;;;;;;;3.22;1.85;;;5.70;99.90;;;;;;5056152;28;20636;-67
2022/01/15 06:40:19;;;;;;;3.47;2.13;;;5.70;99.90;;;;;;5057376;28;20115;-67
2022/01/15 06:42:45;;;;;;;2.72;1.58;;;5.70;99.90;;;;;;5059812;28;20044;-67
2022/01/15 06:45:11;;;;;;;2.60;1.50;;;5.60;99.90;;;;;;5061390;28;20124;-67
2022/01/15 06:47:37;;;;;;;2.38;1.15;;;5.70;99.90;;;;;;5059723;28;20036;-67
2022/01/15 06:50:05;;;;;;;2.20;1.08;;;5.60;99.90;;;;;;5072334;28;20037;-67
2022/01/15 06:52:35;;;;;;;2.45;1.30;;;5.60;99.90;;;;;;5058281;28;20114;-67
2022/01/15 06:55:03;;;;;;;1.67;0.95;;;5.50;99.90;;;;;;5057592;28;20041;-67
2022/01/15 06:57:29;;;;;;;3.60;1.20;;;5.50;99.90;;;;;;5063952;28;20036;-67
2022/01/15 06:59:55;;;;;;;1.23;0.85;;;5.60;99.90;;;;;;5061010;28;20052;-67
2022/01/15 07:02:21;;;;;;;2.47;1.30;;;5.50;99.90;;;;;;5059675;28;20033;-67
2022/01/15 07:04:46;;;;;;;3.55;1.65;;;5.50;99.90;;;;;;5051439;28;20043;-67
2022/01/15 07:07:13;;;;;;;4.18;1.38;;;5.50;99.90;;;;;;5058929;28;20044;-67
2022/01/15 07:09:38;;;;;;;2.58;1.60;;;5.50;99.90;;;;;;5059448;28;20103;-67
2022/01/15 07:12:04;;;;;;;3.28;1.40;;;5.50;99.90;;;;;;5056988;28;20156;-67
2022/01/15 07:14:30;;;;;;;3.17;1.45;;;5.50;99.90;;;;;;5054482;28;20124;-67
2022/01/15 07:16:56;;;;;;;4.82;1.98;;;5.60;99.90;;;;;;5064974;28;20029;-67
2022/01/15 07:19:22;;;;;;;3.58;2.15;;;5.50;99.90;;;;;;5061984;28;20057;-67
2022/01/15 07:21:48;;;;;;;2.75;1.83;;;5.50;99.90;;;;;;5063867;28;20051;-67
2022/01/15 07:24:16;;;;;;;4.43;2.30;;;5.50;99.90;;;;;;5057194;28;20602;-67
2022/01/15 07:26:42;;;;;;;3.92;2.13;;;5.50;99.90;;;;;;5058676;28;20043;-67
2022/01/15 07:29:16;;;;;;;4.75;2.10;;;5.50;99.90;;;;;;5061077;28;20044;-67
2022/01/15 07:31:45;;;;;;;2.95;2.00;;;5.50;99.90;;;;;;5062535;28;20045;-67
2022/01/15 07:34:11;;;;;;;3.70;2.10;;;5.50;99.90;;;;;;5061624;28;20048;-67
2022/01/15 07:36:38;;;;;;;7.70;2.90;;;5.50;99.90;;;;;;5056686;28;20045;-67
2022/01/15 07:39:05;;;;;;;4.50;2.85;;;5.50;99.90;;;;;;5058699;28;20037;-67
2022/01/15 07:41:31;;;;;;;3.75;2.30;;;5.40;99.90;;;;;;5059662;28;20495;-67
2022/01/15 07:44:04;;;;;;;3.78;2.10;;;5.40;99.90;;;;;;5055555;28;20041;-67
2022/01/15 07:46:30;;;;;;;;;;;5.40;99.90;;;;;;5057153;28;20172;-67
2022/01/15 07:48:56;;;;;;;3.72;2.42;;;5.40;99.90;;;;;;5061762;28;20400;-67
2022/01/15 07:51:21;;;;;;;6.75;2.95;;;5.40;99.90;;;;;;5063024;28;20041;-67
2022/01/15 07:53:47;;;;;;;5.20;2.53;;;5.40;99.90;;;;;;5064543;28;20041;-67
2022/01/15 07:56:13;;;;;;;6.95;2.83;;;5.40;99.90;;;;;;5062478;28;20403;-67
2022/01/15 07:58:39;;;;;;;5.03;2.72;;;5.40;99.90;;;;;;5063312;28;20032;-67
2022/01/15 08:01:05;;;;;;;4.57;2.80;;;5.40;99.90;;;;;;5058406;28;20041;-67
2022/01/15 08:03:31;;;;;;;4.13;2.20;;;5.40;99.90;;;;;;5060385;28;20185;-67
2022/01/15 08:05:57;;;;;;;4.72;2.40;;;5.40;99.90;;;;;;5052600;28;20040;-67
2022/01/15 08:08:23;;;;;;;4.70;2.45;;;5.40;99.90;;;;;;5061614;28;20052;-67
2022/01/15 08:10:49;;;;;;;3.97;2.47;;;5.40;99.90;;;;;;5060153;28;20036;-67
2022/01/15 08:13:16;;;;;;;4.13;2.50;;;5.40;99.90;;;;;;5063970;28;20079;-67
2022/01/15 08:15:42;;;;;;;5.35;3.25;;;5.40;99.90;;;;;;5059933;28;20124;-67
2022/01/15 08:18:07;;;;;;;6.03;3.17;;;5.40;99.90;;;;;;5063663;28;20119;-67
2022/01/15 08:20:33;;;;;;;5.47;2.92;;;5.40;99.90;;;;;;5069846;28;20570;-67
2022/01/15 08:22:59;;;;;;;4.97;2.67;;;5.40;99.90;;;;;;5066963;28;20276;-67
2022/01/15 08:25:27;;;;;;;6.25;3.50;;;5.30;99.90;;;;;;5063364;28;20047;-67
2022/01/15 08:27:53;;;;;;;5.88;3.38;;;5.40;99.90;;;;;;5063602;28;20068;-66
2022/01/15 08:30:20;;;;;;;4.55;2.97;;;5.30;99.90;;;;;;5063535;28;20036;-66
2022/01/15 08:32:47;;;;;;;6.40;3.30;;;5.40;99.90;;;;;;5059305;28;20036;-66
2022/01/15 08:35:13;;;;;;;7.43;4.30;;;5.40;99.90;;;;;;5060108;28;20043;-66
2022/01/15 08:37:39;;;;;;;6.75;3.95;;;5.40;99.90;;;;;;5063446;28;20086;-66
2022/01/15 08:40:10;;;;;;;5.90;3.50;;;5.40;99.90;;;;;;5061123;28;20037;-67
2022/01/15 08:42:36;;;;;;;6.57;3.88;;;5.40;99.90;;;;;;5061253;28;20037;-66
2022/01/15 08:45:05;;;;;;;5.53;2.90;;;5.40;99.90;;;;;;5066026;28;20047;-66
2022/01/15 08:47:31;;;;;;;4.47;2.80;;;5.40;99.90;;;;;;5061435;28;20051;-67
2022/01/15 08:49:57;;;;;;;4.82;2.80;;;5.40;99.90;;;;;;5065108;28;20115;-67
2022/01/15 08:52:23;;;;;;;5.43;3.65;;;5.40;99.90;;;;;;5060041;28;20086;-67
2022/01/15 08:54:49;;;;;;;6.63;3.30;;;5.40;99.90;;;;;;5062939;28;20033;-66
2022/01/15 08:57:15;;;;;;;5.00;2.40;;;5.40;99.90;;;;;;5060733;28;20042;-66
2022/01/15 08:59:41;;;;;;;5.78;3.00;;;5.40;99.90;;;;;;5066224;28;20047;-66
2022/01/15 09:02:07;;;;;;;4.53;2.63;;;5.40;99.90;;;;;;5060474;28;20258;-67
2022/01/15 09:04:34;;;;;;;5.97;3.00;;;5.30;99.90;;;;;;5061716;28;20040;-66
2022/01/15 09:07:00;;;;;;;5.88;3.10;;;5.30;99.90;;;;;;5056019;28;20037;-66
2022/01/15 09:09:26;;;;;;;4.95;2.47;;;5.30;99.90;;;;;;5063754;28;20485;-66
2022/01/15 09:11:52;;;;;;;6.72;2.75;;;5.30;99.90;;;;;;5056096;28;20075;-67
2022/01/15 09:14:17;;;;;;;4.85;2.95;;;5.30;99.90;;;;;;5054311;28;20044;-66
2022/01/15 09:16:43;;;;;;;6.32;3.35;;;5.30;99.90;;;;;;5057273;28;20545;-66
2022/01/15 09:19:09;;;;;;;6.57;3.25;;;5.30;99.90;;;;;;5058232;28;20071;-67
2022/01/15 09:21:35;;;;;;;6.95;4.25;;;5.30;99.90;;;;;;5059432;28;20057;-66
2022/01/15 09:24:02;;;;;;;8.38;5.47;;;5.30;99.90;;;;;;5059058;28;20225;-67
2022/01/15 09:31:58;;;;;;;9.60;5.57;;;5.30;99.90;;;;;;5062152;28;20052;-66
2022/01/15 09:34:25;;;;;;;6.97;4.30;;;5.30;99.90;;;;;;5057319;28;20040;-66
2022/01/15 09:36:50;;;;;;;8.10;4.97;;;5.30;99.90;;;;;;5063028;28;20074;-66
2022/01/15 09:39:19;;;;;;;6.75;4.07;;;5.30;99.90;;;;;;5065864;28;20747;-67
2022/01/15 09:41:47;;;;;;;7.82;4.25;;;5.30;99.90;;;;;;5059180;28;20040;-66
2022/01/15 09:44:15;;;;;;;7.38;4.00;;;5.30;99.90;;;;;;5062174;28;20082;-66
2022/01/15 09:46:41;;;;;;;6.57;4.22;;;5.30;99.90;;;;;;5060994;28;20146;-67
2022/01/15 09:49:10;;;;;;;6.88;4.78;;;5.30;99.90;;;;;;5056707;28;20115;-66
2022/01/15 09:51:36;;;;;;;8.68;4.80;;;5.30;99.90;;;;;;5055565;28;20464;-66
2022/01/15 09:54:01;;;;;;;8.25;4.65;;;5.30;99.90;;;;;;5060646;28;20623;-66
2022/01/15 09:56:27;;;;;;;8.63;4.55;;;5.30;99.90;;;;;;5057671;28;20041;-66
2022/01/15 09:58:54;;;;;;;7.63;4.50;;;5.30;99.90;;;;;;5066846;28;20119;-66
2022/01/15 10:01:20;;;;;;;7.63;4.03;;;5.30;99.90;;;;;;5062504;28;20101;-67
2022/01/15 10:03:46;;;;;;;8.10;4.50;;;5.30;99.90;;;;;;5045625;28;20406;-66
2022/01/15 10:06:12;;;;;;;9.07;4.65;;;5.30;99.90;;;;;;5060710;28;20044;-66
2022/01/15 10:08:38;;;;;;;10.38;4.30;;;5.30;99.90;;;;;;5054934;28;20048;-67
2022/01/15 10:11:11;;;;;;;6.63;4.25;;;5.30;99.90;;;;;;5057208;28;20045;-67
2022/01/15 10:13:48;;;;;;;5.45;3.42;;;5.30;99.90;;;;;;5055602;28;20477;-67
2022/01/15 10:16:17;;;;;;;7.53;4.40;;;5.30;99.90;;;;;;5056179;28;20489;-67
2022/01/15 10:18:47;;;;;;;6.15;3.95;;;5.20;99.90;;;;;;5065389;28;20521;-66
2022/01/15 10:21:18;;;;;;;6.57;3.15;;;5.20;99.90;;;;;;5058819;28;20450;-66
2022/01/15 10:23:52;;;;;;;10.77;3.97;;;5.20;99.90;;;;;;5059640;28;20533;-67
2022/01/15 10:26:23;;;;;;;8.40;4.22;;;5.20;99.90;;;;;;5064528;28;20039;-66
2022/01/15 10:28:52;;;;;;;5.90;3.78;;;5.20;99.90;;;;;;5064514;28;20028;-66
2022/01/15 10:31:20;;;;;;;7.20;4.88;;;5.20;99.90;;;;;;5055824;28;20032;-66
2022/01/15 10:33:46;;;;;;;7.35;4.72;;;5.20;99.90;;;;;;5067365;28;20448;-67
2022/01/15 10:36:29;;;;;;;5.72;3.45;;;5.20;99.90;;;;;;5040129;28;20129;-67
2022/01/15 10:39:12;;;;;;;5.85;4.10;;;5.20;99.90;;;;;;5053179;28;20036;-67
2022/01/15 10:41:38;;;;;;;7.10;3.95;;;5.20;99.90;;;;;;5064256;28;20040;-66
2022/01/15 10:44:32;;;;;;;9.55;5.13;;;5.10;99.90;;;;;;5063107;28;20063;-67
2022/01/15 10:47:02;;;;;;;7.22;4.53;;;5.10;99.90;;;;;;5062391;28;20450;-67
2022/01/15 10:49:29;;;;;;;8.95;5.60;;;5.10;99.90;;;;;;5058853;28;20040;-67
2022/01/15 10:52:08;;;;;;;14.52;5.53;;;5.20;99.90;;;;;;5063498;28;20041;-67
2022/01/15 10:54:48;;;;;;;11.50;4.88;;;5.10;99.90;;;;;;5055473;28;20045;-66
2022/01/15 10:57:14;;;;;;;7.30;4.97;;;5.10;99.90;;;;;;5060401;28;20036;-67
2022/01/15 10:59:53;;;;;;;12.35;5.78;;;5.10;99.90;;;;;;5063828;28;20497;-66
2022/01/15 11:02:19;;;;;;;20.48;6.32;;;5.10;99.90;;;;;;5055417;28;20043;-66
2022/01/15 11:04:45;;;;;;;14.65;7.47;;;5.10;99.90;;;;;;5066158;28;20119;-67
2022/01/15 11:07:12;;;;;;;16.38;8.23;;;5.10;99.90;;;;;;5076714;28;20036;-67
2022/01/15 11:09:38;;;;;;;20.00;8.30;;;5.10;99.90;;;;;;5059918;28;20076;-67
2022/01/15 11:12:05;;;;;;;13.23;8.32;;;5.10;99.90;;;;;;5061533;28;20029;-66
2022/01/15 11:14:31;;;;;;;18.30;9.85;;;5.10;99.90;;;;;;5064148;28;20116;-66
2022/01/15 11:16:59;;;;;;;11.45;7.47;;;5.10;99.90;;;;;;5037195;28;20124;-67
2022/01/15 11:19:29;;;;;;;12.57;7.95;;;5.10;99.90;;;;;;5046784;28;20036;-66
2022/01/15 11:21:56;;;;;;;13.52;8.15;;;5.10;99.90;;;;;;5062089;28;20568;-66
2022/01/15 11:24:22;;;;;;;15.80;9.18;;;5.10;99.90;;;;;;5061387;28;20033;-66
2022/01/15 11:26:55;;;;;;;14.48;8.77;;;5.10;99.90;;;;;;5059352;28;20121;-66
2022/01/15 11:29:22;;;;;;;12.10;8.07;;;5.10;99.90;;;;;;5061644;28;20449;-67
2022/01/15 11:31:53;;;;;;;16.05;8.02;;;5.10;99.90;;;;;;5056423;28;20033;-66
2022/01/15 11:34:27;;;;;;;18.58;10.45;;;5.10;99.90;;;;;;5063932;28;20118;-67
2022/01/15 11:36:53;;;;;;;16.50;9.60;;;5.00;99.90;;;;;;5053627;28;20036;-66
2022/01/15 11:39:28;;;;;;;16.75;10.65;;;5.00;99.90;;;;;;5054284;28;20040;-66
2022/01/15 11:41:55;;;;;;;18.45;10.98;;;5.00;99.90;;;;;;5062671;28;20532;-66
2022/01/15 11:44:33;;;;;;;15.70;10.48;;;5.00;99.90;;;;;;5066165;28;20048;-67
2022/01/15 11:47:21;;;;;;;17.63;10.82;;;5.00;99.90;;;;;;5057762;28;20394;-66
2022/01/15 11:49:49;;;;;;;17.60;10.43;;;5.00;99.90;;;;;;5060100;28;20047;-66
2022/01/15 11:52:17;;;;;;;19.60;11.57;;;5.00;99.90;;;;;;5065117;28;20036;-67
2022/01/15 11:54:49;;;;;;;17.30;11.60;;;5.00;99.90;;;;;;5060531;28;20461;-67
2022/01/15 11:57:29;;;;;;;17.42;10.85;;;5.00;99.90;;;;;;5067182;28;20509;-66
2022/01/15 12:00:03;;;;;;;21.63;11.43;;;5.00;99.90;;;;;;5067443;28;20244;-67
2022/01/15 12:02:40;;;;;;;22.42;12.75;;;5.00;99.90;;;;;;5059955;28;20036;-66
2022/01/15 12:05:15;;;;;;;44.45;14.02;;;5.00;99.90;;;;;;5063727;28;20036;-66
2022/01/15 12:08:00;;;;;;;19.65;12.25;;;5.00;99.90;;;;;;5069594;28;20162;-66
2022/01/15 12:10:38;;;;;;;23.67;13.90;;;5.00;99.90;;;;;;5061719;28;20529;-67
2022/01/15 12:13:11;;;;;;;23.73;12.35;;;5.00;99.90;;;;;;5066858;28;20131;-66
2022/01/15 12:15:37;;;;;;;23.70;12.25;;;5.00;99.90;;;;;;5068927;28;20475;-66
2022/01/15 12:18:14;;;;;;;29.27;14.25;;;5.00;99.90;;;;;;5069165;28;20064;-66
2022/01/15 12:20:41;;;;;;;20.92;12.60;;;5.00;99.90;;;;;;5063844;28;20522;-66
2022/01/15 12:23:19;;;;;;;23.90;14.30;;;5.00;99.90;;;;;;5065970;28;20119;-66
2022/01/15 12:25:47;;;;;;;27.70;14.35;;;5.00;99.90;;;;;;5067656;28;20052;-66
2022/01/15 12:28:15;;;;;;;25.33;14.57;;;4.90;99.90;;;;;;5063424;28;20032;-66
2022/01/15 12:30:50;;;;;;;21.98;12.85;;;4.90;99.90;;;;;;5066604;28;20036;-67
2022/01/15 12:33:17;;;;;;;22.92;11.05;;;4.90;99.90;;;;;;5063883;28;20171;-66
2022/01/15 12:35:47;;;;;;;15.82;10.32;;;4.90;99.90;;;;;;5063629;28;20414;-66
2022/01/15 12:38:25;;;;;;;20.33;11.10;;;4.90;99.90;;;;;;5070279;28;20090;-66
2022/01/15 12:41:06;;;;;;;19.55;9.70;;;4.90;99.90;;;;;;5061638;28;20108;-66
2022/01/15 12:43:33;;;;;;;18.50;10.45;;;4.80;99.90;;;;;;5061697;28;20051;-66
2022/01/15 12:46:06;;;;;;;14.95;9.45;;;4.80;99.90;;;;;;5063752;28;20037;-66
2022/01/15 12:48:33;;;;;;;;;;;4.80;99.90;;;;;;5061558;28;20037;-66
2022/01/15 12:51:08;;;;;;;15.00;9.98;;;4.80;99.90;;;;;;5062192;28;19921;-66
2022/01/15 12:53:44;;;;;;;16.48;10.00;;;4.80;99.90;;;;;;5067829;28;20413;-66
2022/01/15 12:56:13;;;;;;;15.55;9.60;;;4.80;99.90;;;;;;5069532;28;20029;-66
2022/01/15 12:58:40;;;;;;;15.57;9.95;;;4.80;99.90;;;;;;5060987;28;20041;-66
2022/01/15 13:01:11;;;;;;;18.40;10.35;;;4.90;99.90;;;;;;5064353;28;20064;-66
2022/01/15 13:03:39;;;;;;;17.45;11.48;;;4.80;99.90;;;;;;5063495;28;20055;-66
2022/01/15 13:06:07;;;;;;;20.33;11.15;;;4.90;99.90;;;;;;5058880;28;20072;-66
2022/01/15 13:08:38;;;;;;;17.88;11.68;;;4.90;99.90;;;;;;5061875;28;20099;-66
2022/01/15 13:11:08;;;;;;;19.70;10.88;;;4.90;99.90;;;;;;5058870;28;20048;-66
2022/01/15 13:13:38;;;;;;;21.25;12.05;;;4.90;99.90;;;;;;5056689;28;20033;-66
2022/01/15 13:16:07;;;;;;;21.25;13.45;;;4.90;99.90;;;;;;5061660;28;20045;-66
2022/01/15 13:18:41;;;;;;;17.35;11.80;;;4.90;99.90;;;;;;5059565;28;20029;-66
2022/01/15 13:21:09;;;;;;;18.73;12.57;;;4.90;99.90;;;;;;5059225;28;20629;-66
2022/01/15 13:23:39;;;;;;;21.17;12.80;;;4.90;99.90;;;;;;5062878;28;20386;-66